sensor_id;sensor_type;location;lat;lon;timestamp;P1;durP1;ratioP1;P2;durP2;ratioP2
59263;SDS011;45030;42.720;23.344;2023-08-12T06:45:21;5.00;;;2.30;;
59263;SDS011;45030;42.720;23.344;2023-08-12T06:47:46;5.57;;;2.70;;
59263;SDS011;45030;42.720;23.344;2023-08-12T06:50:12;6.95;;;2.83;;
59263;SDS011;45030;42.720;23.344;2023-08-12T06:52:37;3.20;;;2.40;;
59263;SDS011;45030;42.720;23.344;2023-08-12T06:57:33;8.68;;;3.88;;
59263;SDS011;45030;42.720;23.344;2023-08-12T06:59:58;6.83;;;3.17;;
59263;SDS011;45030;42.720;23.344;2023-08-12T07:02:23;6.53;;;3.13;;
59263;SDS011;45030;42.720;23.344;2023-08-12T07:04:49;6.87;;;3.00;;
59263;SDS011;45030;42.720;23.344;2023-08-12T07:07:14;3.53;;;2.90;;
59263;SDS011;45030;42.720;23.344;2023-08-12T07:09:39;5.03;;;2.83;;
59263;SDS011;45030;42.720;23.344;2023-08-12T07:12:04;3.27;;;2.63;;
59263;SDS011;45030;42.720;23.344;2023-08-12T07:14:30;4.07;;;2.80;;
59263;SDS011;45030;42.720;23.344;2023-08-12T07:16:55;3.25;;;2.28;;
59263;SDS011;45030;42.720;23.344;2023-08-12T07:19:20;4.20;;;2.00;;
59263;SDS011;45030;42.720;23.344;2023-08-12T07:21:45;5.05;;;2.25;;
59263;SDS011;45030;42.720;23.344;2023-08-12T07:24:11;8.83;;;2.53;;
59263;SDS011;45030;42.720;23.344;2023-08-12T07:26:36;3.13;;;2.10;;
59263;SDS011;45030;42.720;23.344;2023-08-12T07:29:01;4.43;;;2.20;;
59263;SDS011;45030;42.720;23.344;2023-08-12T07:31:26;3.08;;;2.30;;
59263;SDS011;45030;42.720;23.344;2023-08-12T07:33:52;3.97;;;2.47;;
59263;SDS011;45030;42.720;23.344;2023-08-12T07:36:17;4.17;;;2.00;;
59263;SDS011;45030;42.720;23.344;2023-08-12T07:38:42;2.85;;;1.80;;
59263;SDS011;45030;42.720;23.344;2023-08-12T07:41:07;2.67;;;1.73;;
59263;SDS011;45030;42.720;23.344;2023-08-12T07:43:33;3.40;;;2.03;;
59263;SDS011;45030;42.720;23.344;2023-08-12T07:45:58;4.80;;;2.63;;
59263;SDS011;45030;42.720;23.344;2023-08-12T07:48:23;3.72;;;2.13;;
59263;SDS011;45030;42.720;23.344;2023-08-12T07:50:58;5.43;;;2.30;;
59263;SDS011;45030;42.720;23.344;2023-08-12T07:53:24;4.38;;;2.05;;
59263;SDS011;45030;42.720;23.344;2023-08-12T07:55:49;4.53;;;1.90;;
59263;SDS011;45030;42.720;23.344;2023-08-12T07:58:14;3.72;;;1.67;;
59263;SDS011;45030;42.720;23.344;2023-08-12T08:00:40;5.55;;;2.00;;
59263;SDS011;45030;42.720;23.344;2023-08-12T08:03:05;2.87;;;1.60;;
59263;SDS011;45030;42.720;23.344;2023-08-12T08:05:30;4.22;;;2.40;;
59263;SDS011;45030;42.720;23.344;2023-08-12T08:07:56;3.75;;;2.00;;
59263;SDS011;45030;42.720;23.344;2023-08-12T08:10:21;2.45;;;1.85;;
59263;SDS011;45030;42.720;23.344;2023-08-12T08:12:47;4.40;;;1.80;;
59263;SDS011;45030;42.720;23.344;2023-08-12T08:15:12;3.97;;;1.73;;
59263;SDS011;45030;42.720;23.344;2023-08-12T08:17:37;4.67;;;2.47;;
59263;SDS011;45030;42.720;23.344;2023-08-12T08:20:02;2.90;;;1.83;;
59263;SDS011;45030;42.720;23.344;2023-08-12T08:22:30;4.07;;;1.90;;
59263;SDS011;45030;42.720;23.344;2023-08-12T08:24:55;2.83;;;1.80;;
59263;SDS011;45030;42.720;23.344;2023-08-12T08:27:20;3.55;;;1.80;;
59263;SDS011;45030;42.720;23.344;2023-08-12T08:29:46;3.00;;;1.80;;
59263;SDS011;45030;42.720;23.344;2023-08-12T08:32:11;3.73;;;1.93;;
59263;SDS011;45030;42.720;23.344;2023-08-12T08:34:36;6.20;;;2.03;;
59263;SDS011;45030;42.720;23.344;2023-08-12T08:37:01;3.43;;;1.70;;
59263;SDS011;45030;42.720;23.344;2023-08-12T08:39:27;2.53;;;1.83;;
59263;SDS011;45030;42.720;23.344;2023-08-12T08:41:53;3.37;;;1.60;;
59263;SDS011;45030;42.720;23.344;2023-08-12T08:44:19;6.05;;;2.00;;
59263;SDS011;45030;42.720;23.344;2023-08-12T08:46:45;2.45;;;1.50;;
59263;SDS011;45030;42.720;23.344;2023-08-12T08:49:11;2.85;;;1.75;;
59263;SDS011;45030;42.720;23.344;2023-08-12T08:51:36;3.30;;;2.35;;
59263;SDS011;45030;42.720;23.344;2023-08-12T08:54:02;3.53;;;2.20;;
59263;SDS011;45030;42.720;23.344;2023-08-12T08:56:29;8.02;;;1.77;;
59263;SDS011;45030;42.720;23.344;2023-08-12T08:58:54;4.78;;;2.88;;
59263;SDS011;45030;42.720;23.344;2023-08-12T09:01:20;3.22;;;1.90;;
59263;SDS011;45030;42.720;23.344;2023-08-12T09:03:47;1.77;;;1.27;;
59263;SDS011;45030;42.720;23.344;2023-08-12T09:06:12;2.20;;;1.55;;
59263;SDS011;45030;42.720;23.344;2023-08-12T09:08:38;1.88;;;1.30;;
59263;SDS011;45030;42.720;23.344;2023-08-12T09:11:06;2.58;;;1.48;;
59263;SDS011;45030;42.720;23.344;2023-08-12T09:13:32;2.88;;;1.52;;
59263;SDS011;45030;42.720;23.344;2023-08-12T09:15:58;3.70;;;1.55;;
59263;SDS011;45030;42.720;23.344;2023-08-12T09:18:23;2.45;;;1.58;;
59263;SDS011;45030;42.720;23.344;2023-08-12T09:20:49;2.17;;;1.63;;
59263;SDS011;45030;42.720;23.344;2023-08-12T09:23:16;2.35;;;1.40;;
59263;SDS011;45030;42.720;23.344;2023-08-12T09:25:43;3.58;;;1.50;;
59263;SDS011;45030;42.720;23.344;2023-08-12T09:28:11;2.88;;;1.50;;
59263;SDS011;45030;42.720;23.344;2023-08-12T09:30:37;2.67;;;1.40;;
59263;SDS011;45030;42.720;23.344;2023-08-12T09:33:03;2.30;;;1.67;;
59263;SDS011;45030;42.720;23.344;2023-08-12T09:35:32;2.30;;;1.65;;
59263;SDS011;45030;42.720;23.344;2023-08-12T09:37:57;2.20;;;1.40;;
59263;SDS011;45030;42.720;23.344;2023-08-12T09:40:23;2.33;;;1.47;;
59263;SDS011;45030;42.720;23.344;2023-08-12T09:42:48;3.30;;;1.60;;
59263;SDS011;45030;42.720;23.344;2023-08-12T09:45:15;2.70;;;1.52;;
59263;SDS011;45030;42.720;23.344;2023-08-12T09:47:41;1.92;;;1.27;;
59263;SDS011;45030;42.720;23.344;2023-08-12T09:50:07;1.90;;;1.27;;
59263;SDS011;45030;42.720;23.344;2023-08-12T09:52:32;2.13;;;1.30;;
59263;SDS011;45030;42.720;23.344;2023-08-12T09:54:57;3.27;;;1.27;;
59263;SDS011;45030;42.720;23.344;2023-08-12T09:57:25;2.83;;;1.65;;
59263;SDS011;45030;42.720;23.344;2023-08-12T09:59:50;1.60;;;1.13;;
59263;SDS011;45030;42.720;23.344;2023-08-12T10:02:18;1.80;;;1.20;;
59263;SDS011;45030;42.720;23.344;2023-08-12T10:04:45;1.70;;;1.20;;
59263;SDS011;45030;42.720;23.344;2023-08-12T10:07:10;3.15;;;1.30;;
59263;SDS011;45030;42.720;23.344;2023-08-12T10:09:37;2.85;;;1.20;;
59263;SDS011;45030;42.720;23.344;2023-08-12T10:12:04;2.95;;;1.40;;
59263;SDS011;45030;42.720;23.344;2023-08-12T10:14:29;2.10;;;1.30;;
59263;SDS011;45030;42.720;23.344;2023-08-12T10:16:55;2.03;;;1.25;;
59263;SDS011;45030;42.720;23.344;2023-08-12T10:19:20;1.60;;;1.20;;
59263;SDS011;45030;42.720;23.344;2023-08-12T10:21:47;2.30;;;1.35;;
59263;SDS011;45030;42.720;23.344;2023-08-12T10:24:13;3.33;;;1.40;;
59263;SDS011;45030;42.720;23.344;2023-08-12T10:26:41;2.20;;;1.40;;
59263;SDS011;45030;42.720;23.344;2023-08-12T10:29:07;3.00;;;1.13;;
59263;SDS011;45030;42.720;23.344;2023-08-12T10:31:32;2.10;;;1.30;;
59263;SDS011;45030;42.720;23.344;2023-08-12T10:33:58;2.00;;;1.30;;
59263;SDS011;45030;42.720;23.344;2023-08-12T10:36:23;2.10;;;1.38;;
59263;SDS011;45030;42.720;23.344;2023-08-12T10:38:48;2.20;;;1.33;;
59263;SDS011;45030;42.720;23.344;2023-08-12T10:41:23;3.57;;;1.30;;
59263;SDS011;45030;42.720;23.344;2023-08-12T10:43:50;2.25;;;1.40;;
59263;SDS011;45030;42.720;23.344;2023-08-12T10:46:23;2.67;;;1.65;;
59263;SDS011;45030;42.720;23.344;2023-08-12T10:48:58;2.40;;;1.60;;
59263;SDS011;45030;42.720;23.344;2023-08-12T10:54:30;2.50;;;1.20;;
59263;SDS011;45030;42.720;23.344;2023-08-12T11:04:55;1.67;;;1.00;;
59263;SDS011;45030;42.720;23.344;2023-08-12T11:07:21;1.27;;;0.80;;
59263;SDS011;45030;42.720;23.344;2023-08-12T11:09:51;1.33;;;0.90;;
59263;SDS011;45030;42.720;23.344;2023-08-12T11:12:38;2.03;;;1.20;;
59263;SDS011;45030;42.720;23.344;2023-08-12T11:15:04;2.45;;;0.98;;
59263;SDS011;45030;42.720;23.344;2023-08-12T11:17:37;1.23;;;0.80;;
59263;SDS011;45030;42.720;23.344;2023-08-12T11:20:12;1.65;;;0.90;;
59263;SDS011;45030;42.720;23.344;2023-08-12T11:22:41;1.40;;;0.95;;
59263;SDS011;45030;42.720;23.344;2023-08-12T11:25:08;1.52;;;1.00;;
59263;SDS011;45030;42.720;23.344;2023-08-12T11:27:45;1.30;;;0.82;;
59263;SDS011;45030;42.720;23.344;2023-08-12T11:30:12;1.83;;;1.00;;
59263;SDS011;45030;42.720;23.344;2023-08-12T11:32:38;1.65;;;0.80;;
59263;SDS011;45030;42.720;23.344;2023-08-12T11:35:05;1.30;;;0.82;;
59263;SDS011;45030;42.720;23.344;2023-08-12T11:37:31;1.75;;;1.10;;
59263;SDS011;45030;42.720;23.344;2023-08-12T11:39:57;1.70;;;0.85;;
59263;SDS011;45030;42.720;23.344;2023-08-12T11:42:22;1.75;;;1.00;;
59263;SDS011;45030;42.720;23.344;2023-08-12T11:44:48;1.75;;;1.15;;
59263;SDS011;45030;42.720;23.344;2023-08-12T11:47:13;1.60;;;1.00;;
59263;SDS011;45030;42.720;23.344;2023-08-12T11:49:38;1.90;;;1.00;;
59263;SDS011;45030;42.720;23.344;2023-08-12T11:52:03;1.80;;;1.15;;
59263;SDS011;45030;42.720;23.344;2023-08-12T11:54:29;2.70;;;1.58;;
59263;SDS011;45030;42.720;23.344;2023-08-12T11:56:54;2.08;;;1.33;;
59263;SDS011;45030;42.720;23.344;2023-08-12T11:59:22;2.05;;;1.30;;
59263;SDS011;45030;42.720;23.344;2023-08-12T12:01:50;1.83;;;1.00;;
59263;SDS011;45030;42.720;23.344;2023-08-12T12:04:15;1.38;;;1.10;;
59263;SDS011;45030;42.720;23.344;2023-08-12T12:06:41;2.72;;;1.25;;
59263;SDS011;45030;42.720;23.344;2023-08-12T12:09:07;1.83;;;1.00;;
59263;SDS011;45030;42.720;23.344;2023-08-12T12:11:35;2.38;;;1.00;;
59263;SDS011;45030;42.720;23.344;2023-08-12T12:14:02;2.78;;;1.95;;
59263;SDS011;45030;42.720;23.344;2023-08-12T12:16:44;2.05;;;0.98;;
59263;SDS011;45030;42.720;23.344;2023-08-12T12:19:16;1.63;;;1.00;;
59263;SDS011;45030;42.720;23.344;2023-08-12T12:21:42;1.40;;;0.90;;
59263;SDS011;45030;42.720;23.344;2023-08-12T12:24:10;1.85;;;1.20;;
59263;SDS011;45030;42.720;23.344;2023-08-12T12:26:35;1.70;;;1.10;;
59263;SDS011;45030;42.720;23.344;2023-08-12T12:29:02;2.50;;;1.00;;
59263;SDS011;45030;42.720;23.344;2023-08-12T12:31:27;2.25;;;1.20;;
59263;SDS011;45030;42.720;23.344;2023-08-12T12:33:52;1.53;;;1.10;;
59263;SDS011;45030;42.720;23.344;2023-08-12T12:36:17;1.33;;;1.10;;
59263;SDS011;45030;42.720;23.344;2023-08-12T12:38:43;1.77;;;1.00;;
59263;SDS011;45030;42.720;23.344;2023-08-12T12:41:08;1.80;;;1.10;;
59263;SDS011;45030;42.720;23.344;2023-08-12T12:43:34;2.60;;;1.65;;
59263;SDS011;45030;42.720;23.344;2023-08-12T12:45:59;2.43;;;1.30;;
59263;SDS011;45030;42.720;23.344;2023-08-12T12:48:24;2.03;;;1.38;;
59263;SDS011;45030;42.720;23.344;2023-08-12T12:50:49;1.90;;;1.33;;
59263;SDS011;45030;42.720;23.344;2023-08-12T12:53:15;2.93;;;1.23;;
59263;SDS011;45030;42.720;23.344;2023-08-12T12:55:40;1.90;;;1.20;;
59263;SDS011;45030;42.720;23.344;2023-08-12T12:58:05;2.03;;;1.38;;
59263;SDS011;45030;42.720;23.344;2023-08-12T13:00:30;2.90;;;1.27;;
59263;SDS011;45030;42.720;23.344;2023-08-12T13:02:56;3.47;;;1.40;;
59263;SDS011;45030;42.720;23.344;2023-08-12T13:05:21;2.70;;;1.20;;
59263;SDS011;45030;42.720;23.344;2023-08-12T13:07:47;2.20;;;1.30;;
59263;SDS011;45030;42.720;23.344;2023-08-12T13:10:12;2.72;;;1.40;;
59263;SDS011;45030;42.720;23.344;2023-08-12T13:12:38;2.13;;;1.23;;
59263;SDS011;45030;42.720;23.344;2023-08-12T13:15:03;3.50;;;1.10;;
59263;SDS011;45030;42.720;23.344;2023-08-12T13:17:28;1.77;;;1.20;;
59263;SDS011;45030;42.720;23.344;2023-08-12T13:19:54;2.33;;;1.20;;
59263;SDS011;45030;42.720;23.344;2023-08-12T13:22:19;2.03;;;1.30;;
59263;SDS011;45030;42.720;23.344;2023-08-12T13:24:44;4.20;;;1.27;;
59263;SDS011;45030;42.720;23.344;2023-08-12T13:27:09;1.63;;;0.90;;
59263;SDS011;45030;42.720;23.344;2023-08-12T13:29:35;3.33;;;1.02;;
59263;SDS011;45030;42.720;23.344;2023-08-12T13:32:01;2.83;;;1.13;;
59263;SDS011;45030;42.720;23.344;2023-08-12T13:34:26;2.22;;;1.20;;
59263;SDS011;45030;42.720;23.344;2023-08-12T13:36:51;1.77;;;1.10;;
59263;SDS011;45030;42.720;23.344;2023-08-12T13:39:16;3.40;;;1.03;;
59263;SDS011;45030;42.720;23.344;2023-08-12T13:41:42;1.42;;;1.00;;
59263;SDS011;45030;42.720;23.344;2023-08-12T13:44:08;1.90;;;1.05;;
59263;SDS011;45030;42.720;23.344;2023-08-12T13:46:33;1.23;;;1.00;;
59263;SDS011;45030;42.720;23.344;2023-08-12T13:48:59;1.63;;;1.03;;
59263;SDS011;45030;42.720;23.344;2023-08-12T13:51:24;1.90;;;1.03;;
59263;SDS011;45030;42.720;23.344;2023-08-12T13:53:49;1.70;;;1.10;;
59263;SDS011;45030;42.720;23.344;2023-08-12T13:56:15;4.28;;;1.30;;
59263;SDS011;45030;42.720;23.344;2023-08-12T13:58:41;3.13;;;1.30;;
59263;SDS011;45030;42.720;23.344;2023-08-12T14:01:06;2.13;;;1.27;;
59263;SDS011;45030;42.720;23.344;2023-08-12T14:03:32;2.77;;;1.20;;
59263;SDS011;45030;42.720;23.344;2023-08-12T14:05:57;1.70;;;1.27;;
59263;SDS011;45030;42.720;23.344;2023-08-12T14:08:22;2.47;;;1.20;;
59263;SDS011;45030;42.720;23.344;2023-08-12T14:10:48;1.83;;;1.08;;
59263;SDS011;45030;42.720;23.344;2023-08-12T14:13:13;2.03;;;1.40;;
59263;SDS011;45030;42.720;23.344;2023-08-12T14:15:38;2.70;;;1.33;;
59263;SDS011;45030;42.720;23.344;2023-08-12T14:18:04;3.63;;;1.40;;
59263;SDS011;45030;42.720;23.344;2023-08-12T14:20:29;3.33;;;1.30;;
59263;SDS011;45030;42.720;23.344;2023-08-12T14:22:54;1.97;;;1.30;;
59263;SDS011;45030;42.720;23.344;2023-08-12T14:25:19;1.57;;;1.30;;
59263;SDS011;45030;42.720;23.344;2023-08-12T14:27:45;2.30;;;1.30;;
59263;SDS011;45030;42.720;23.344;2023-08-12T14:30:10;1.80;;;1.10;;
59263;SDS011;45030;42.720;23.344;2023-08-12T14:32:35;2.90;;;1.50;;
59263;SDS011;45030;42.720;23.344;2023-08-12T14:35:01;4.27;;;1.40;;
59263;SDS011;45030;42.720;23.344;2023-08-12T14:37:26;2.10;;;1.40;;
59263;SDS011;45030;42.720;23.344;2023-08-12T14:39:52;4.28;;;1.52;;
59263;SDS011;45030;42.720;23.344;2023-08-12T14:42:18;4.28;;;1.77;;
59263;SDS011;45030;42.720;23.344;2023-08-12T14:44:43;2.40;;;1.40;;
59263;SDS011;45030;42.720;23.344;2023-08-12T14:47:08;2.30;;;1.50;;
59263;SDS011;45030;42.720;23.344;2023-08-12T14:49:34;5.25;;;1.45;;
59263;SDS011;45030;42.720;23.344;2023-08-12T14:51:59;2.60;;;1.40;;
59263;SDS011;45030;42.720;23.344;2023-08-12T14:54:24;3.63;;;2.47;;
59263;SDS011;45030;42.720;23.344;2023-08-12T14:56:50;2.03;;;1.40;;
59263;SDS011;45030;42.720;23.344;2023-08-12T14:59:15;3.60;;;1.73;;
59263;SDS011;45030;42.720;23.344;2023-08-12T15:01:40;2.57;;;1.70;;
59263;SDS011;45030;42.720;23.344;2023-08-12T15:04:05;2.47;;;1.80;;
59263;SDS011;45030;42.720;23.344;2023-08-12T15:06:31;2.30;;;1.60;;
59263;SDS011;45030;42.720;23.344;2023-08-12T15:08:56;3.17;;;1.90;;
59263;SDS011;45030;42.720;23.344;2023-08-12T15:11:21;2.63;;;1.63;;
59263;SDS011;45030;42.720;23.344;2023-08-12T15:13:47;3.35;;;1.77;;
59263;SDS011;45030;42.720;23.344;2023-08-12T15:16:12;2.65;;;1.80;;
59263;SDS011;45030;42.720;23.344;2023-08-12T15:18:38;2.67;;;1.67;;
59263;SDS011;45030;42.720;23.344;2023-08-12T15:21:03;2.23;;;1.53;;
59263;SDS011;45030;42.720;23.344;2023-08-12T15:23:28;6.27;;;1.87;;
59263;SDS011;45030;42.720;23.344;2023-08-12T15:25:53;2.05;;;1.65;;
59263;SDS011;45030;42.720;23.344;2023-08-12T15:28:19;2.57;;;1.67;;
59263;SDS011;45030;42.720;23.344;2023-08-12T15:30:47;2.92;;;1.77;;
59263;SDS011;45030;42.720;23.344;2023-08-12T15:33:12;3.13;;;1.60;;
59263;SDS011;45030;42.720;23.344;2023-08-12T15:35:37;3.00;;;1.67;;
59263;SDS011;45030;42.720;23.344;2023-08-12T15:38:03;2.77;;;1.83;;
59263;SDS011;45030;42.720;23.344;2023-08-12T15:40:29;4.03;;;1.80;;
59263;SDS011;45030;42.720;23.344;2023-08-12T15:42:54;3.63;;;2.10;;
59263;SDS011;45030;42.720;23.344;2023-08-12T15:45:19;4.23;;;2.10;;
59263;SDS011;45030;42.720;23.344;2023-08-12T15:47:44;6.78;;;2.60;;
59263;SDS011;45030;42.720;23.344;2023-08-12T15:50:10;8.07;;;3.07;;
59263;SDS011;45030;42.720;23.344;2023-08-12T15:52:35;9.40;;;3.17;;
59263;SDS011;45030;42.720;23.344;2023-08-12T15:55:01;8.50;;;3.07;;
59263;SDS011;45030;42.720;23.344;2023-08-12T15:57:26;6.97;;;3.28;;
59263;SDS011;45030;42.720;23.344;2023-08-12T15:59:51;7.63;;;4.00;;
59263;SDS011;45030;42.720;23.344;2023-08-12T16:02:17;4.07;;;2.40;;
59263;SDS011;45030;42.720;23.344;2023-08-12T16:04:42;4.57;;;2.47;;
59263;SDS011;45030;42.720;23.344;2023-08-12T16:07:07;3.80;;;1.80;;
59263;SDS011;45030;42.720;23.344;2023-08-12T16:09:32;2.47;;;1.60;;
59263;SDS011;45030;42.720;23.344;2023-08-12T16:11:58;2.43;;;1.60;;
59263;SDS011;45030;42.720;23.344;2023-08-12T16:14:23;3.17;;;1.93;;
59263;SDS011;45030;42.720;23.344;2023-08-12T16:16:48;2.47;;;1.63;;
59263;SDS011;45030;42.720;23.344;2023-08-12T16:19:13;3.90;;;1.65;;
59263;SDS011;45030;42.720;23.344;2023-08-12T16:21:39;3.70;;;1.90;;
59263;SDS011;45030;42.720;23.344;2023-08-12T16:24:04;2.90;;;1.83;;
59263;SDS011;45030;42.720;23.344;2023-08-12T16:26:29;6.97;;;1.92;;
59263;SDS011;45030;42.720;23.344;2023-08-12T16:28:54;3.35;;;1.88;;
59263;SDS011;45030;42.720;23.344;2023-08-12T16:31:20;2.73;;;1.50;;
59263;SDS011;45030;42.720;23.344;2023-08-12T16:33:45;3.38;;;2.30;;
59263;SDS011;45030;42.720;23.344;2023-08-12T16:36:11;3.22;;;1.90;;
59263;SDS011;45030;42.720;23.344;2023-08-12T16:38:36;2.97;;;1.80;;
59263;SDS011;45030;42.720;23.344;2023-08-12T16:41:01;2.60;;;1.70;;
59263;SDS011;45030;42.720;23.344;2023-08-12T16:43:28;2.83;;;1.73;;
59263;SDS011;45030;42.720;23.344;2023-08-12T16:45:53;2.97;;;1.80;;
59263;SDS011;45030;42.720;23.344;2023-08-12T16:48:19;2.70;;;1.58;;
59263;SDS011;45030;42.720;23.344;2023-08-12T16:50:44;3.13;;;1.80;;
59263;SDS011;45030;42.720;23.344;2023-08-12T16:53:09;2.93;;;1.90;;
59263;SDS011;45030;42.720;23.344;2023-08-12T16:55:34;3.27;;;1.93;;
59263;SDS011;45030;42.720;23.344;2023-08-12T16:58:00;5.50;;;2.17;;
59263;SDS011;45030;42.720;23.344;2023-08-12T17:00:25;3.53;;;2.92;;
59263;SDS011;45030;42.720;23.344;2023-08-12T17:02:50;3.40;;;1.80;;
59263;SDS011;45030;42.720;23.344;2023-08-12T17:05:15;2.53;;;1.70;;
59263;SDS011;45030;42.720;23.344;2023-08-12T17:07:41;2.45;;;2.10;;
59263;SDS011;45030;42.720;23.344;2023-08-12T17:10:06;3.40;;;2.23;;
59263;SDS011;45030;42.720;23.344;2023-08-12T17:12:31;3.28;;;2.70;;
59263;SDS011;45030;42.720;23.344;2023-08-12T17:14:57;6.47;;;2.90;;
59263;SDS011;45030;42.720;23.344;2023-08-12T17:17:22;5.30;;;3.17;;
59263;SDS011;45030;42.720;23.344;2023-08-12T17:19:47;6.90;;;3.15;;
59263;SDS011;45030;42.720;23.344;2023-08-12T17:22:12;3.80;;;2.80;;
59263;SDS011;45030;42.720;23.344;2023-08-12T17:24:38;5.28;;;2.70;;
59263;SDS011;45030;42.720;23.344;2023-08-12T17:27:03;7.68;;;4.28;;
59263;SDS011;45030;42.720;23.344;2023-08-12T17:29:28;5.88;;;4.28;;
59263;SDS011;45030;42.720;23.344;2023-08-12T17:31:54;6.55;;;4.03;;
59263;SDS011;45030;42.720;23.344;2023-08-12T17:34:19;9.13;;;4.30;;
59263;SDS011;45030;42.720;23.344;2023-08-12T17:36:44;8.00;;;5.23;;
59263;SDS011;45030;42.720;23.344;2023-08-12T17:39:09;7.73;;;6.33;;
59263;SDS011;45030;42.720;23.344;2023-08-12T17:41:35;10.80;;;5.13;;
59263;SDS011;45030;42.720;23.344;2023-08-12T17:44:00;7.65;;;4.20;;
59263;SDS011;45030;42.720;23.344;2023-08-12T17:46:25;4.07;;;2.85;;
59263;SDS011;45030;42.720;23.344;2023-08-12T17:48:50;3.83;;;2.45;;
59263;SDS011;45030;42.720;23.344;2023-08-12T17:51:16;4.47;;;2.37;;
59263;SDS011;45030;42.720;23.344;2023-08-12T17:53:43;5.47;;;2.92;;
59263;SDS011;45030;42.720;23.344;2023-08-12T17:56:09;3.67;;;2.22;;
59263;SDS011;45030;42.720;23.344;2023-08-12T17:58:36;3.85;;;2.45;;
59263;SDS011;45030;42.720;23.344;2023-08-12T18:01:01;6.20;;;2.45;;
59263;SDS011;45030;42.720;23.344;2023-08-12T18:03:26;4.13;;;2.80;;
59263;SDS011;45030;42.720;23.344;2023-08-12T18:05:51;6.95;;;2.60;;
59263;SDS011;45030;42.720;23.344;2023-08-12T18:08:17;2.90;;;2.40;;
59263;SDS011;45030;42.720;23.344;2023-08-12T18:10:43;6.25;;;2.65;;
59263;SDS011;45030;42.720;23.344;2023-08-12T18:13:08;6.75;;;2.55;;
59263;SDS011;45030;42.720;23.344;2023-08-12T18:15:33;3.90;;;2.20;;
59263;SDS011;45030;42.720;23.344;2023-08-12T18:17:58;5.55;;;2.42;;
59263;SDS011;45030;42.720;23.344;2023-08-12T18:20:25;2.92;;;2.08;;
59263;SDS011;45030;42.720;23.344;2023-08-12T18:22:50;2.92;;;2.33;;
59263;SDS011;45030;42.720;23.344;2023-08-12T18:25:15;3.03;;;1.63;;
59263;SDS011;45030;42.720;23.344;2023-08-12T18:27:40;3.75;;;2.25;;
59263;SDS011;45030;42.720;23.344;2023-08-12T18:30:06;3.30;;;2.30;;
59263;SDS011;45030;42.720;23.344;2023-08-12T18:32:31;3.80;;;2.40;;
59263;SDS011;45030;42.720;23.344;2023-08-12T18:34:57;4.00;;;2.42;;
59263;SDS011;45030;42.720;23.344;2023-08-12T18:37:22;4.47;;;2.50;;
59263;SDS011;45030;42.720;23.344;2023-08-12T18:39:47;4.55;;;2.80;;
59263;SDS011;45030;42.720;23.344;2023-08-12T18:42:13;3.38;;;2.55;;
59263;SDS011;45030;42.720;23.344;2023-08-12T18:44:38;3.63;;;2.30;;
59263;SDS011;45030;42.720;23.344;2023-08-12T18:47:03;4.43;;;2.80;;
59263;SDS011;45030;42.720;23.344;2023-08-12T18:49:29;3.67;;;2.72;;
59263;SDS011;45030;42.720;23.344;2023-08-12T18:51:54;5.07;;;2.87;;
59263;SDS011;45030;42.720;23.344;2023-08-12T18:54:19;6.72;;;3.95;;
59263;SDS011;45030;42.720;23.344;2023-08-12T18:56:45;6.00;;;4.13;;
59263;SDS011;45030;42.720;23.344;2023-08-12T18:59:10;7.80;;;5.10;;
59263;SDS011;45030;42.720;23.344;2023-08-12T19:01:35;7.18;;;4.18;;
59263;SDS011;45030;42.720;23.344;2023-08-12T19:04:00;7.13;;;4.10;;
59263;SDS011;45030;42.720;23.344;2023-08-12T19:06:26;5.75;;;3.40;;
59263;SDS011;45030;42.720;23.344;2023-08-12T19:08:51;6.95;;;3.22;;
59263;SDS011;45030;42.720;23.344;2023-08-12T19:11:16;6.65;;;3.70;;
59263;SDS011;45030;42.720;23.344;2023-08-12T19:13:45;6.68;;;3.58;;
59263;SDS011;45030;42.720;23.344;2023-08-12T19:16:11;5.22;;;3.20;;
59263;SDS011;45030;42.720;23.344;2023-08-12T19:18:36;8.65;;;3.58;;
59263;SDS011;45030;42.720;23.344;2023-08-12T19:21:01;9.27;;;3.67;;
59263;SDS011;45030;42.720;23.344;2023-08-12T19:23:28;11.25;;;3.53;;
59263;SDS011;45030;42.720;23.344;2023-08-12T19:25:53;4.88;;;2.53;;
59263;SDS011;45030;42.720;23.344;2023-08-12T19:28:19;3.78;;;2.53;;
59263;SDS011;45030;42.720;23.344;2023-08-12T19:30:47;5.07;;;2.80;;
59263;SDS011;45030;42.720;23.344;2023-08-12T19:33:14;3.35;;;2.40;;
59263;SDS011;45030;42.720;23.344;2023-08-12T19:35:39;4.78;;;2.67;;
59263;SDS011;45030;42.720;23.344;2023-08-12T19:38:06;4.75;;;2.60;;
59263;SDS011;45030;42.720;23.344;2023-08-12T19:40:35;3.65;;;2.70;;
59263;SDS011;45030;42.720;23.344;2023-08-12T19:43:00;4.63;;;2.05;;
59263;SDS011;45030;42.720;23.344;2023-08-12T19:45:25;4.75;;;2.92;;
59263;SDS011;45030;42.720;23.344;2023-08-12T19:47:50;3.57;;;2.40;;
59263;SDS011;45030;42.720;23.344;2023-08-12T19:50:16;6.40;;;2.47;;
59263;SDS011;45030;42.720;23.344;2023-08-12T19:52:41;3.70;;;2.70;;
59263;SDS011;45030;42.720;23.344;2023-08-12T19:55:06;3.33;;;2.53;;
59263;SDS011;45030;42.720;23.344;2023-08-12T19:57:32;5.45;;;3.30;;
59263;SDS011;45030;42.720;23.344;2023-08-12T19:59:58;5.75;;;2.70;;
59263;SDS011;45030;42.720;23.344;2023-08-12T20:02:23;3.78;;;2.45;;
59263;SDS011;45030;42.720;23.344;2023-08-12T20:04:48;5.45;;;3.03;;
59263;SDS011;45030;42.720;23.344;2023-08-12T20:07:13;3.27;;;2.60;;
59263;SDS011;45030;42.720;23.344;2023-08-12T20:09:39;5.47;;;3.28;;
59263;SDS011;45030;42.720;23.344;2023-08-12T20:12:04;4.65;;;3.20;;
59263;SDS011;45030;42.720;23.344;2023-08-12T20:14:29;4.35;;;2.70;;
59263;SDS011;45030;42.720;23.344;2023-08-12T20:16:55;4.18;;;2.55;;
59263;SDS011;45030;42.720;23.344;2023-08-12T20:19:20;6.75;;;3.38;;
59263;SDS011;45030;42.720;23.344;2023-08-12T20:21:45;10.93;;;4.68;;
59263;SDS011;45030;42.720;23.344;2023-08-12T20:24:11;5.78;;;3.80;;
59263;SDS011;45030;42.720;23.344;2023-08-12T20:26:36;5.15;;;3.33;;
59263;SDS011;45030;42.720;23.344;2023-08-12T20:29:02;6.63;;;3.53;;
59263;SDS011;45030;42.720;23.344;2023-08-12T20:31:27;8.35;;;4.15;;
59263;SDS011;45030;42.720;23.344;2023-08-12T20:33:53;9.93;;;4.55;;
59263;SDS011;45030;42.720;23.344;2023-08-12T20:36:18;7.53;;;4.18;;
59263;SDS011;45030;42.720;23.344;2023-08-12T20:38:44;8.38;;;4.28;;
59263;SDS011;45030;42.720;23.344;2023-08-12T20:41:09;3.28;;;2.60;;
59263;SDS011;45030;42.720;23.344;2023-08-12T20:43:34;3.55;;;2.45;;
59263;SDS011;45030;42.720;23.344;2023-08-12T20:45:59;3.63;;;2.92;;
59263;SDS011;45030;42.720;23.344;2023-08-12T20:48:25;4.47;;;3.10;;
59263;SDS011;45030;42.720;23.344;2023-08-12T20:50:54;4.00;;;2.53;;
59263;SDS011;45030;42.720;23.344;2023-08-12T20:53:20;3.55;;;2.78;;
59263;SDS011;45030;42.720;23.344;2023-08-12T20:55:45;6.78;;;3.13;;
59263;SDS011;45030;42.720;23.344;2023-08-12T20:58:10;4.57;;;2.63;;
59263;SDS011;45030;42.720;23.344;2023-08-12T21:00:36;3.70;;;2.15;;
59263;SDS011;45030;42.720;23.344;2023-08-12T21:03:01;2.85;;;2.22;;
59263;SDS011;45030;42.720;23.344;2023-08-12T21:05:27;3.50;;;2.25;;
59263;SDS011;45030;42.720;23.344;2023-08-12T21:07:52;5.55;;;2.08;;
59263;SDS011;45030;42.720;23.344;2023-08-12T21:10:17;3.33;;;2.40;;
59263;SDS011;45030;42.720;23.344;2023-08-12T21:12:43;3.05;;;2.35;;
59263;SDS011;45030;42.720;23.344;2023-08-12T21:15:09;2.78;;;2.00;;
59263;SDS011;45030;42.720;23.344;2023-08-12T21:17:34;3.47;;;2.30;;
59263;SDS011;45030;42.720;23.344;2023-08-12T21:20:00;3.90;;;2.60;;
59263;SDS011;45030;42.720;23.344;2023-08-12T21:22:25;3.67;;;2.40;;